sensor_id;sensor_type;location;lat;lon;timestamp;temperature;humidity
50570;DHT22;36525;49.398;7.614;2022-11-20T00:01:28;5.60;99.90
50570;DHT22;36525;49.398;7.614;2022-11-20T00:03:57;5.60;99.90
50570;DHT22;36525;49.398;7.614;2022-11-20T00:06:26;5.60;99.90
50570;DHT22;36525;49.398;7.614;2022-11-20T00:08:55;5.70;99.90
50570;DHT22;36525;49.398;7.614;2022-11-20T00:11:25;5.70;99.90
50570;DHT22;36525;49.398;7.614;2022-11-20T00:13:57;5.80;99.90
50570;DHT22;36525;49.398;7.614;2022-11-20T00:16:27;5.80;99.90
50570;DHT22;36525;49.398;7.614;2022-11-20T00:18:55;5.80;99.90
50570;DHT22;36525;49.398;7.614;2022-11-20T00:21:24;5.90;99.90
50570;DHT22;36525;49.398;7.614;2022-11-20T00:23:54;5.90;99.90
50570;DHT22;36525;49.398;7.614;2022-11-20T00:26:23;5.90;99.90
50570;DHT22;36525;49.398;7.614;2022-11-20T00:28:53;5.90;99.90
50570;DHT22;36525;49.398;7.614;2022-11-20T00:31:21;5.90;99.90
50570;DHT22;36525;49.398;7.614;2022-11-20T00:33:48;5.90;99.90
50570;DHT22;36525;49.398;7.614;2022-11-20T00:36:18;6.00;99.90
50570;DHT22;36525;49.398;7.614;2022-11-20T00:38:47;6.00;99.90
50570;DHT22;36525;49.398;7.614;2022-11-20T00:41:17;6.10;99.90
50570;DHT22;36525;49.398;7.614;2022-11-20T00:46:17;6.10;99.90
50570;DHT22;36525;49.398;7.614;2022-11-20T00:48:45;6.20;99.90
50570;DHT22;36525;49.398;7.614;2022-11-20T00:51:18;6.20;99.90
50570;DHT22;36525;49.398;7.614;2022-11-20T00:53:47;6.20;99.90
50570;DHT22;36525;49.398;7.614;2022-11-20T00:56:17;6.20;99.90
50570;DHT22;36525;49.398;7.614;2022-11-20T00:58:46;6.20;99.90
50570;DHT22;36525;49.398;7.614;2022-11-20T01:01:19;6.20;99.90
50570;DHT22;36525;49.398;7.614;2022-11-20T01:03:49;6.20;99.90
50570;DHT22;36525;49.398;7.614;2022-11-20T01:06:25;6.20;99.90
50570;DHT22;36525;49.398;7.614;2022-11-20T01:08:54;6.20;99.90
50570;DHT22;36525;49.398;7.614;2022-11-20T01:11:24;6.20;99.90
50570;DHT22;36525;49.398;7.614;2022-11-20T01:13:57;6.20;99.90
50570;DHT22;36525;49.398;7.614;2022-11-20T01:16:33;6.20;99.90
50570;DHT22;36525;49.398;7.614;2022-11-20T01:19:04;6.20;99.90
50570;DHT22;36525;49.398;7.614;2022-11-20T01:21:36;6.20;99.90
50570;DHT22;36525;49.398;7.614;2022-11-20T01:24:06;6.20;99.90
50570;DHT22;36525;49.398;7.614;2022-11-20T01:26:36;6.10;99.90
50570;DHT22;36525;49.398;7.614;2022-11-20T01:29:05;6.20;99.90
50570;DHT22;36525;49.398;7.614;2022-11-20T01:31:34;6.10;99.90
50570;DHT22;36525;49.398;7.614;2022-11-20T01:34:09;6.20;99.90
50570;DHT22;36525;49.398;7.614;2022-11-20T01:36:38;6.20;99.90
50570;DHT22;36525;49.398;7.614;2022-11-20T01:39:13;6.20;99.90
50570;DHT22;36525;49.398;7.614;2022-11-20T01:41:42;6.20;99.90
50570;DHT22;36525;49.398;7.614;2022-11-20T01:47:40;6.20;99.90
50570;DHT22;36525;49.398;7.614;2022-11-20T01:50:15;6.20;99.90
50570;DHT22;36525;49.398;7.614;2022-11-20T01:55:26;6.30;99.90
50570;DHT22;36525;49.398;7.614;2022-11-20T01:57:57;6.20;99.90
50570;DHT22;36525;49.398;7.614;2022-11-20T02:00:25;6.20;99.90
50570;DHT22;36525;49.398;7.614;2022-11-20T02:02:56;6.20;99.90
50570;DHT22;36525;49.398;7.614;2022-11-20T02:05:38;6.20;99.90
50570;DHT22;36525;49.398;7.614;2022-11-20T02:08:08;6.20;99.90
50570;DHT22;36525;49.398;7.614;2022-11-20T02:10:35;6.30;99.90
50570;DHT22;36525;49.398;7.614;2022-11-20T02:13:03;6.20;99.90
50570;DHT22;36525;49.398;7.614;2022-11-20T02:15:49;6.30;99.90
50570;DHT22;36525;49.398;7.614;2022-11-20T02:18:19;6.30;99.90
50570;DHT22;36525;49.398;7.614;2022-11-20T02:20:50;6.30;99.90
50570;DHT22;36525;49.398;7.614;2022-11-20T02:23:37;6.30;99.90
50570;DHT22;36525;49.398;7.614;2022-11-20T02:26:09;6.30;99.90
50570;DHT22;36525;49.398;7.614;2022-11-20T02:28:37;6.30;99.90
50570;DHT22;36525;49.398;7.614;2022-11-20T02:31:04;6.30;99.90
50570;DHT22;36525;49.398;7.614;2022-11-20T02:33:31;6.30;99.90
50570;DHT22;36525;49.398;7.614;2022-11-20T02:35:58;6.30;99.90
50570;DHT22;36525;49.398;7.614;2022-11-20T02:38:25;6.30;99.90
50570;DHT22;36525;49.398;7.614;2022-11-20T02:40:52;6.30;99.90
50570;DHT22;36525;49.398;7.614;2022-11-20T02:43:22;6.30;99.90
50570;DHT22;36525;49.398;7.614;2022-11-20T02:45:49;6.30;99.90
50570;DHT22;36525;49.398;7.614;2022-11-20T02:48:16;6.30;99.90
50570;DHT22;36525;49.398;7.614;2022-11-20T02:50:43;6.30;99.90
50570;DHT22;36525;49.398;7.614;2022-11-20T02:53:10;6.30;99.90
50570;DHT22;36525;49.398;7.614;2022-11-20T02:55:37;6.30;99.90
50570;DHT22;36525;49.398;7.614;2022-11-20T02:58:04;6.30;99.90
50570;DHT22;36525;49.398;7.614;2022-11-20T03:00:31;6.30;99.90
50570;DHT22;36525;49.398;7.614;2022-11-20T03:02:58;6.40;99.90
50570;DHT22;36525;49.398;7.614;2022-11-20T03:05:25;6.30;99.90
50570;DHT22;36525;49.398;7.614;2022-11-20T03:07:52;6.30;99.90
50570;DHT22;36525;49.398;7.614;2022-11-20T03:10:19;6.30;99.90
50570;DHT22;36525;49.398;7.614;2022-11-20T03:12:46;6.30;99.90
50570;DHT22;36525;49.398;7.614;2022-11-20T03:15:13;6.40;99.90
50570;DHT22;36525;49.398;7.614;2022-11-20T03:17:40;6.40;99.90
50570;DHT22;36525;49.398;7.614;2022-11-20T03:20:07;6.30;99.90
50570;DHT22;36525;49.398;7.614;2022-11-20T03:22:35;6.40;99.90
50570;DHT22;36525;49.398;7.614;2022-11-20T03:25:03;6.30;99.90
50570;DHT22;36525;49.398;7.614;2022-11-20T03:27:34;6.30;99.90
50570;DHT22;36525;49.398;7.614;2022-11-20T03:30:01;6.40;99.90
50570;DHT22;36525;49.398;7.614;2022-11-20T03:32:29;6.40;99.90
50570;DHT22;36525;49.398;7.614;2022-11-20T03:34:56;6.40;99.90
50570;DHT22;36525;49.398;7.614;2022-11-20T03:37:22;6.40;99.90
50570;DHT22;36525;49.398;7.614;2022-11-20T03:39:49;6.30;99.90
50570;DHT22;36525;49.398;7.614;2022-11-20T03:42:16;6.30;99.90
50570;DHT22;36525;49.398;7.614;2022-11-20T03:45:02;6.30;99.90
50570;DHT22;36525;49.398;7.614;2022-11-20T03:47:29;6.40;99.90
50570;DHT22;36525;49.398;7.614;2022-11-20T03:49:56;6.30;99.90
50570;DHT22;36525;49.398;7.614;2022-11-20T03:52:23;6.40;99.90
50570;DHT22;36525;49.398;7.614;2022-11-20T03:54:50;6.40;99.90
50570;DHT22;36525;49.398;7.614;2022-11-20T03:57:17;6.40;99.90
50570;DHT22;36525;49.398;7.614;2022-11-20T03:59:44;6.40;99.90
50570;DHT22;36525;49.398;7.614;2022-11-20T04:02:11;6.40;99.90
50570;DHT22;36525;49.398;7.614;2022-11-20T04:04:38;6.40;99.90
50570;DHT22;36525;49.398;7.614;2022-11-20T04:07:04;6.40;99.90
50570;DHT22;36525;49.398;7.614;2022-11-20T04:09:31;6.30;99.90
50570;DHT22;36525;49.398;7.614;2022-11-20T04:11:58;6.30;99.90
50570;DHT22;36525;49.398;7.614;2022-11-20T04:14:25;6.30;99.90
50570;DHT22;36525;49.398;7.614;2022-11-20T04:16:52;6.30;99.90
50570;DHT22;36525;49.398;7.614;2022-11-20T04:19:19;6.30;99.90
50570;DHT22;36525;49.398;7.614;2022-11-20T04:21:47;6.30;99.90
50570;DHT22;36525;49.398;7.614;2022-11-20T04:24:14;6.30;99.90
50570;DHT22;36525;49.398;7.614;2022-11-20T04:26:41;6.40;99.90
50570;DHT22;36525;49.398;7.614;2022-11-20T04:29:11;6.40;99.90
50570;DHT22;36525;49.398;7.614;2022-11-20T04:31:38;6.30;99.90
50570;DHT22;36525;49.398;7.614;2022-11-20T04:34:06;6.30;99.90
50570;DHT22;36525;49.398;7.614;2022-11-20T04:36:33;6.30;99.90
50570;DHT22;36525;49.398;7.614;2022-11-20T04:39:04;6.30;99.90
50570;DHT22;36525;49.398;7.614;2022-11-20T04:41:34;6.30;99.90
50570;DHT22;36525;49.398;7.614;2022-11-20T04:44:04;6.30;99.90
50570;DHT22;36525;49.398;7.614;2022-11-20T04:46:34;6.30;99.90
50570;DHT22;36525;49.398;7.614;2022-11-20T04:49:06;6.30;99.90
50570;DHT22;36525;49.398;7.614;2022-11-20T04:51:33;6.30;99.90
50570;DHT22;36525;49.398;7.614;2022-11-20T04:54:00;6.20;99.90
50570;DHT22;36525;49.398;7.614;2022-11-20T04:56:27;6.20;99.90
50570;DHT22;36525;49.398;7.614;2022-11-20T04:58:54;6.20;99.90
50570;DHT22;36525;49.398;7.614;2022-11-20T05:01:23;6.20;99.90
50570;DHT22;36525;49.398;7.614;2022-11-20T05:03:51;6.20;99.90
50570;DHT22;36525;49.398;7.614;2022-11-20T05:06:20;6.20;99.90
50570;DHT22;36525;49.398;7.614;2022-11-20T05:08:48;6.20;99.90
50570;DHT22;36525;49.398;7.614;2022-11-20T05:11:18;6.30;99.90
50570;DHT22;36525;49.398;7.614;2022-11-20T05:13:46;6.30;99.90
50570;DHT22;36525;49.398;7.614;2022-11-20T05:16:16;6.30;99.90
50570;DHT22;36525;49.398;7.614;2022-11-20T05:18:45;6.20;99.90
50570;DHT22;36525;49.398;7.614;2022-11-20T05:21:13;6.30;99.90
50570;DHT22;36525;49.398;7.614;2022-11-20T05:23:40;6.30;99.90
50570;DHT22;36525;49.398;7.614;2022-11-20T05:26:12;6.20;99.90
50570;DHT22;36525;49.398;7.614;2022-11-20T05:28:49;6.20;99.90
50570;DHT22;36525;49.398;7.614;2022-11-20T05:31:19;6.20;99.90
50570;DHT22;36525;49.398;7.614;2022-11-20T05:33:54;6.20;99.90
50570;DHT22;36525;49.398;7.614;2022-11-20T05:36:22;6.30;99.90
50570;DHT22;36525;49.398;7.614;2022-11-20T05:38:50;6.30;99.90
50570;DHT22;36525;49.398;7.614;2022-11-20T05:41:20;6.30;99.90
50570;DHT22;36525;49.398;7.614;2022-11-20T05:43:48;6.20;99.90
50570;DHT22;36525;49.398;7.614;2022-11-20T05:46:18;6.20;99.90
50570;DHT22;36525;49.398;7.614;2022-11-20T05:48:54;6.20;99.90
50570;DHT22;36525;49.398;7.614;2022-11-20T05:51:22;6.20;99.90
50570;DHT22;36525;49.398;7.614;2022-11-20T05:53:49;6.20;99.90
50570;DHT22;36525;49.398;7.614;2022-11-20T05:56:18;6.20;99.90
50570;DHT22;36525;49.398;7.614;2022-11-20T05:58:47;6.20;99.90
50570;DHT22;36525;49.398;7.614;2022-11-20T06:01:20;6.20;99.90
50570;DHT22;36525;49.398;7.614;2022-11-20T06:03:48;6.30;99.90
50570;DHT22;36525;49.398;7.614;2022-11-20T06:06:18;6.20;99.90
50570;DHT22;36525;49.398;7.614;2022-11-20T06:08:46;6.30;99.90
50570;DHT22;36525;49.398;7.614;2022-11-20T06:11:14;6.30;99.90
50570;DHT22;36525;49.398;7.614;2022-11-20T06:13:42;6.30;99.90
50570;DHT22;36525;49.398;7.614;2022-11-20T06:16:10;6.30;99.90
50570;DHT22;36525;49.398;7.614;2022-11-20T06:18:38;6.30;99.90
50570;DHT22;36525;49.398;7.614;2022-11-20T06:21:08;6.30;99.90
50570;DHT22;36525;49.398;7.614;2022-11-20T06:23:36;6.30;99.90
50570;DHT22;36525;49.398;7.614;2022-11-20T06:26:05;6.30;99.90
50570;DHT22;36525;49.398;7.614;2022-11-20T06:28:33;6.30;99.90
50570;DHT22;36525;49.398;7.614;2022-11-20T06:31:01;6.30;99.90
50570;DHT22;36525;49.398;7.614;2022-11-20T06:33:28;6.40;99.90
50570;DHT22;36525;49.398;7.614;2022-11-20T06:35:57;6.40;99.90
50570;DHT22;36525;49.398;7.614;2022-11-20T06:38:29;6.30;99.90
50570;DHT22;36525;49.398;7.614;2022-11-20T06:40:56;6.30;99.90
50570;DHT22;36525;49.398;7.614;2022-11-20T06:43:24;6.40;99.90
50570;DHT22;36525;49.398;7.614;2022-11-20T06:45:56;6.40;99.90
50570;DHT22;36525;49.398;7.614;2022-11-20T06:48:26;6.40;99.90
50570;DHT22;36525;49.398;7.614;2022-11-20T06:50:54;6.40;99.90
50570;DHT22;36525;49.398;7.614;2022-11-20T06:53:22;6.40;99.90
50570;DHT22;36525;49.398;7.614;2022-11-20T06:55:50;6.30;99.90
50570;DHT22;36525;49.398;7.614;2022-11-20T06:58:18;6.30;99.90
50570;DHT22;36525;49.398;7.614;2022-11-20T07:00:45;6.40;99.90
50570;DHT22;36525;49.398;7.614;2022-11-20T07:03:12;6.30;99.90
50570;DHT22;36525;49.398;7.614;2022-11-20T07:05:40;6.40;99.90
50570;DHT22;36525;49.398;7.614;2022-11-20T07:08:08;6.40;99.90
50570;DHT22;36525;49.398;7.614;2022-11-20T07:10:36;6.30;99.90
50570;DHT22;36525;49.398;7.614;2022-11-20T07:13:03;6.40;99.90
50570;DHT22;36525;49.398;7.614;2022-11-20T07:15:30;6.40;99.90
50570;DHT22;36525;49.398;7.614;2022-11-20T07:18:01;6.40;99.90
50570;DHT22;36525;49.398;7.614;2022-11-20T07:20:28;6.40;99.90
50570;DHT22;36525;49.398;7.614;2022-11-20T07:22:56;6.40;99.90
50570;DHT22;36525;49.398;7.614;2022-11-20T07:25:25;6.30;99.90
50570;DHT22;36525;49.398;7.614;2022-11-20T07:27:56;6.40;99.90
50570;DHT22;36525;49.398;7.614;2022-11-20T07:30:25;6.50;99.90
50570;DHT22;36525;49.398;7.614;2022-11-20T07:32:55;6.50;99.90
50570;DHT22;36525;49.398;7.614;2022-11-20T07:35:26;6.50;99.90
50570;DHT22;36525;49.398;7.614;2022-11-20T07:37:52;6.50;99.90
50570;DHT22;36525;49.398;7.614;2022-11-20T07:40:20;6.50;99.90
50570;DHT22;36525;49.398;7.614;2022-11-20T07:42:55;6.60;99.90
50570;DHT22;36525;49.398;7.614;2022-11-20T07:45:24;6.60;99.90
50570;DHT22;36525;49.398;7.614;2022-11-20T07:47:51;6.60;99.90
50570;DHT22;36525;49.398;7.614;2022-11-20T07:50:19;6.60;99.90
50570;DHT22;36525;49.398;7.614;2022-11-20T07:52:47;6.70;99.90
50570;DHT22;36525;49.398;7.614;2022-11-20T07:55:14;6.70;99.90
50570;DHT22;36525;49.398;7.614;2022-11-20T07:57:41;6.70;99.90
50570;DHT22;36525;49.398;7.614;2022-11-20T08:00:10;6.70;99.90
50570;DHT22;36525;49.398;7.614;2022-11-20T08:02:39;6.70;99.90
50570;DHT22;36525;49.398;7.614;2022-11-20T08:05:08;6.70;99.90
50570;DHT22;36525;49.398;7.614;2022-11-20T08:07:37;6.70;99.90
50570;DHT22;36525;49.398;7.614;2022-11-20T08:10:06;6.60;99.90
50570;DHT22;36525;49.398;7.614;2022-11-20T08:12:34;6.80;99.90
50570;DHT22;36525;49.398;7.614;2022-11-20T08:15:20;6.90;99.90
50570;DHT22;36525;49.398;7.614;2022-11-20T08:17:47;7.00;99.90
50570;DHT22;36525;49.398;7.614;2022-11-20T08:20:35;7.10;99.90
50570;DHT22;36525;49.398;7.614;2022-11-20T08:23:04;7.30;99.90
50570;DHT22;36525;49.398;7.614;2022-11-20T08:25:36;7.30;99.90
50570;DHT22;36525;49.398;7.614;2022-11-20T08:28:06;7.40;99.90
50570;DHT22;36525;49.398;7.614;2022-11-20T08:33:14;7.40;99.90
50570;DHT22;36525;49.398;7.614;2022-11-20T08:35:41;7.40;99.90
50570;DHT22;36525;49.398;7.614;2022-11-20T08:38:09;7.40;99.90
50570;DHT22;36525;49.398;7.614;2022-11-20T08:40:36;7.40;99.90
50570;DHT22;36525;49.398;7.614;2022-11-20T08:43:03;7.50;99.90
50570;DHT22;36525;49.398;7.614;2022-11-20T08:45:31;7.50;99.90
50570;DHT22;36525;49.398;7.614;2022-11-20T08:48:02;7.50;99.90
50570;DHT22;36525;49.398;7.614;2022-11-20T08:50:31;7.40;99.90
50570;DHT22;36525;49.398;7.614;2022-11-20T08:53:05;7.40;99.90
50570;DHT22;36525;49.398;7.614;2022-11-20T08:55:32;7.40;99.90
50570;DHT22;36525;49.398;7.614;2022-11-20T08:58:06;7.30;99.90
50570;DHT22;36525;49.398;7.614;2022-11-20T09:00:33;7.20;99.90
50570;DHT22;36525;49.398;7.614;2022-11-20T09:03:01;7.20;99.90
50570;DHT22;36525;49.398;7.614;2022-11-20T09:05:28;7.20;99.90
50570;DHT22;36525;49.398;7.614;2022-11-20T09:07:56;7.30;99.90
50570;DHT22;36525;49.398;7.614;2022-11-20T09:10:24;7.30;99.90
50570;DHT22;36525;49.398;7.614;2022-11-20T09:12:52;7.30;99.90
50570;DHT22;36525;49.398;7.614;2022-11-20T09:15:22;7.30;99.90
50570;DHT22;36525;49.398;7.614;2022-11-20T09:17:58;7.30;99.90
50570;DHT22;36525;49.398;7.614;2022-11-20T09:20:27;7.40;99.90
50570;DHT22;36525;49.398;7.614;2022-11-20T09:22:56;7.40;99.90
50570;DHT22;36525;49.398;7.614;2022-11-20T09:25:24;7.40;99.90
50570;DHT22;36525;49.398;7.614;2022-11-20T09:27:58;7.40;99.90
50570;DHT22;36525;49.398;7.614;2022-11-20T09:30:26;7.40;99.90
50570;DHT22;36525;49.398;7.614;2022-11-20T09:32:54;7.40;99.90
50570;DHT22;36525;49.398;7.614;2022-11-20T09:35:21;7.40;99.90
50570;DHT22;36525;49.398;7.614;2022-11-20T09:37:48;7.30;99.90
50570;DHT22;36525;49.398;7.614;2022-11-20T09:40:29;7.30;99.90
50570;DHT22;36525;49.398;7.614;2022-11-20T09:46:17;7.30;99.90
50570;DHT22;36525;49.398;7.614;2022-11-20T09:52:00;7.20;99.90
50570;DHT22;36525;49.398;7.614;2022-11-20T09:54:35;7.10;99.90
50570;DHT22;36525;49.398;7.614;2022-11-20T09:57:14;7.10;99.90
50570;DHT22;36525;49.398;7.614;2022-11-20T09:59:46;7.10;99.90
50570;DHT22;36525;49.398;7.614;2022-11-20T10:02:27;7.20;99.90
50570;DHT22;36525;49.398;7.614;2022-11-20T10:05:19;7.20;99.90
50570;DHT22;36525;49.398;7.614;2022-11-20T10:08:09;7.30;99.90
50570;DHT22;36525;49.398;7.614;2022-11-20T10:25:19;7.30;99.90
50570;DHT22;36525;49.398;7.614;2022-11-20T10:30:28;7.50;99.90
50570;DHT22;36525;49.398;7.614;2022-11-20T10:33:05;7.70;99.90
50570;DHT22;36525;49.398;7.614;2022-11-20T10:36:05;7.70;99.90
50570;DHT22;36525;49.398;7.614;2022-11-20T10:39:05;7.70;99.90
50570;DHT22;36525;49.398;7.614;2022-11-20T10:41:46;7.90;99.90
50570;DHT22;36525;49.398;7.614;2022-11-20T10:44:19;8.10;99.90
50570;DHT22;36525;49.398;7.614;2022-11-20T10:47:14;8.20;99.90
50570;DHT22;36525;49.398;7.614;2022-11-20T10:49:44;8.20;99.90
50570;DHT22;36525;49.398;7.614;2022-11-20T10:58:10;8.40;99.90
50570;DHT22;36525;49.398;7.614;2022-11-20T11:00:47;8.70;99.90
50570;DHT22;36525;49.398;7.614;2022-11-20T11:03:34;8.80;99.90
50570;DHT22;36525;49.398;7.614;2022-11-20T11:06:21;8.70;99.90
50570;DHT22;36525;49.398;7.614;2022-11-20T11:08:53;8.70;99.90
50570;DHT22;36525;49.398;7.614;2022-11-20T11:11:24;8.60;99.90
50570;DHT22;36525;49.398;7.614;2022-11-20T11:13:53;8.40;99.90
50570;DHT22;36525;49.398;7.614;2022-11-20T11:16:25;8.20;99.90
50570;DHT22;36525;49.398;7.614;2022-11-20T11:19:10;8.10;99.90
50570;DHT22;36525;49.398;7.614;2022-11-20T11:21:53;7.90;99.90
50570;DHT22;36525;49.398;7.614;2022-11-20T11:24:27;7.80;99.90
50570;DHT22;36525;49.398;7.614;2022-11-20T11:27:13;7.70;99.90
50570;DHT22;36525;49.398;7.614;2022-11-20T11:29:44;7.60;99.90
50570;DHT22;36525;49.398;7.614;2022-11-20T11:32:14;7.50;99.90
50570;DHT22;36525;49.398;7.614;2022-11-20T11:34:42;7.40;99.90
50570;DHT22;36525;49.398;7.614;2022-11-20T11:37:21;7.40;99.90
50570;DHT22;36525;49.398;7.614;2022-11-20T11:39:48;7.40;99.90
50570;DHT22;36525;49.398;7.614;2022-11-20T11:42:35;7.50;99.90
50570;DHT22;36525;49.398;7.614;2022-11-20T11:45:14;7.60;99.90
50570;DHT22;36525;49.398;7.614;2022-11-20T11:47:44;7.60;99.90
50570;DHT22;36525;49.398;7.614;2022-11-20T11:50:27;7.80;99.90
50570;DHT22;36525;49.398;7.614;2022-11-20T11:53:13;8.00;99.90
50570;DHT22;36525;49.398;7.614;2022-11-20T11:55:56;8.00;99.90
50570;DHT22;36525;49.398;7.614;2022-11-20T11:58:32;8.00;99.90
50570;DHT22;36525;49.398;7.614;2022-11-20T12:06:58;8.40;99.90
50570;DHT22;36525;49.398;7.614;2022-11-20T12:09:51;8.40;99.90
50570;DHT22;36525;49.398;7.614;2022-11-20T12:12:27;8.40;99.90
50570;DHT22;36525;49.398;7.614;2022-11-20T12:14:58;8.30;99.90
50570;DHT22;36525;49.398;7.614;2022-11-20T12:17:25;8.50;99.90
50570;DHT22;36525;49.398;7.614;2022-11-20T12:19:52;8.60;99.90
50570;DHT22;36525;49.398;7.614;2022-11-20T12:22:43;8.80;99.90
50570;DHT22;36525;49.398;7.614;2022-11-20T12:25:24;8.80;99.90
50570;DHT22;36525;49.398;7.614;2022-11-20T12:31:26;8.80;99.90
50570;DHT22;36525;49.398;7.614;2022-11-20T12:34:08;8.90;99.90
50570;DHT22;36525;49.398;7.614;2022-11-20T12:37:07;8.90;99.90
50570;DHT22;36525;49.398;7.614;2022-11-20T12:39:34;8.90;99.90
50570;DHT22;36525;49.398;7.614;2022-11-20T12:57:06;8.70;99.90
50570;DHT22;36525;49.398;7.614;2022-11-20T13:08:00;9.00;99.90
50570;DHT22;36525;49.398;7.614;2022-11-20T13:16:06;9.00;99.90
50570;DHT22;36525;49.398;7.614;2022-11-20T13:18:40;9.00;99.90
50570;DHT22;36525;49.398;7.614;2022-11-20T13:21:36;9.30;99.90
50570;DHT22;36525;49.398;7.614;2022-11-20T13:24:20;9.20;99.90
50570;DHT22;36525;49.398;7.614;2022-11-20T13:27:22;9.50;99.90
50570;DHT22;36525;49.398;7.614;2022-11-20T13:30:13;9.80;99.90
50570;DHT22;36525;49.398;7.614;2022-11-20T13:32:54;9.60;99.90
50570;DHT22;36525;49.398;7.614;2022-11-20T13:35:42;9.20;99.90
50570;DHT22;36525;49.398;7.614;2022-11-20T13:38:11;8.90;99.90
50570;DHT22;36525;49.398;7.614;2022-11-20T13:41:00;8.80;99.90
50570;DHT22;36525;49.398;7.614;2022-11-20T13:43:47;8.80;99.90
50570;DHT22;36525;49.398;7.614;2022-11-20T13:46:14;8.70;99.90
50570;DHT22;36525;49.398;7.614;2022-11-20T13:48:45;8.70;99.90
50570;DHT22;36525;49.398;7.614;2022-11-20T13:51:47;8.40;99.90
50570;DHT22;36525;49.398;7.614;2022-11-20T13:57:35;8.10;99.90
50570;DHT22;36525;49.398;7.614;2022-11-20T14:00:24;8.00;99.90
50570;DHT22;36525;49.398;7.614;2022-11-20T14:03:13;7.90;99.90
50570;DHT22;36525;49.398;7.614;2022-11-20T14:06:11;7.80;99.90
50570;DHT22;36525;49.398;7.614;2022-11-20T14:08:53;7.70;99.90
50570;DHT22;36525;49.398;7.614;2022-11-20T14:11:23;7.60;99.90
50570;DHT22;36525;49.398;7.614;2022-11-20T14:14:10;7.50;99.90
50570;DHT22;36525;49.398;7.614;2022-11-20T14:16:40;7.50;99.90
50570;DHT22;36525;49.398;7.614;2022-11-20T14:19:35;7.60;99.90
50570;DHT22;36525;49.398;7.614;2022-11-20T14:24:46;7.60;99.90
50570;DHT22;36525;49.398;7.614;2022-11-20T14:27:16;7.60;99.90
50570;DHT22;36525;49.398;7.614;2022-11-20T14:29:46;7.60;99.90
50570;DHT22;36525;49.398;7.614;2022-11-20T14:32:20;7.70;99.90
50570;DHT22;36525;49.398;7.614;2022-11-20T14:34:49;7.70;99.90
50570;DHT22;36525;49.398;7.614;2022-11-20T14:37:23;7.70;99.90
50570;DHT22;36525;49.398;7.614;2022-11-20T14:39:53;7.70;99.90
50570;DHT22;36525;49.398;7.614;2022-11-20T14:42:24;7.60;99.90
50570;DHT22;36525;49.398;7.614;2022-11-20T14:44:55;7.60;99.90
50570;DHT22;36525;49.398;7.614;2022-11-20T14:47:29;7.60;99.90
50570;DHT22;36525;49.398;7.614;2022-11-20T14:49:58;7.50;99.90
50570;DHT22;36525;49.398;7.614;2022-11-20T14:52:34;7.40;99.90
50570;DHT22;36525;49.398;7.614;2022-11-20T14:55:01;7.40;99.90
50570;DHT22;36525;49.398;7.614;2022-11-20T15:02:41;7.30;99.90
50570;DHT22;36525;49.398;7.614;2022-11-20T15:05:09;7.40;99.90
50570;DHT22;36525;49.398;7.614;2022-11-20T15:07:40;7.40;99.90
50570;DHT22;36525;49.398;7.614;2022-11-20T15:12:54;7.30;99.90
50570;DHT22;36525;49.398;7.614;2022-11-20T15:18:03;7.20;99.90
50570;DHT22;36525;49.398;7.614;2022-11-20T15:20:32;7.20;99.90
50570;DHT22;36525;49.398;7.614;2022-11-20T15:22:59;7.10;99.90
50570;DHT22;36525;49.398;7.614;2022-11-20T15:25:26;7.20;99.90
50570;DHT22;36525;49.398;7.614;2022-11-20T15:27:56;7.10;99.90
50570;DHT22;36525;49.398;7.614;2022-11-20T15:30:24;7.10;99.90
50570;DHT22;36525;49.398;7.614;2022-11-20T15:32:51;7.10;99.90
50570;DHT22;36525;49.398;7.614;2022-11-20T15:35:18;7.10;99.90
50570;DHT22;36525;49.398;7.614;2022-11-20T15:37:45;7.10;99.90
50570;DHT22;36525;49.398;7.614;2022-11-20T15:40:12;7.00;99.90
50570;DHT22;36525;49.398;7.614;2022-11-20T15:42:39;7.10;99.90
50570;DHT22;36525;49.398;7.614;2022-11-20T15:45:28;7.10;99.90
50570;DHT22;36525;49.398;7.614;2022-11-20T15:47:57;7.10;99.90
50570;DHT22;36525;49.398;7.614;2022-11-20T15:50:29;7.00;99.90
50570;DHT22;36525;49.398;7.614;2022-11-20T15:52:59;6.90;99.90
50570;DHT22;36525;49.398;7.614;2022-11-20T15:55:26;6.90;99.90
50570;DHT22;36525;49.398;7.614;2022-11-20T15:57:53;6.90;99.90
50570;DHT22;36525;49.398;7.614;2022-11-20T16:00:20;6.90;99.90
50570;DHT22;36525;49.398;7.614;2022-11-20T16:02:49;6.80;99.90
50570;DHT22;36525;49.398;7.614;2022-11-20T16:05:17;6.80;99.90
50570;DHT22;36525;49.398;7.614;2022-11-20T16:07:44;6.80;99.90
50570;DHT22;36525;49.398;7.614;2022-11-20T16:10:11;6.80;99.90
50570;DHT22;36525;49.398;7.614;2022-11-20T16:12:38;6.80;99.90
50570;DHT22;36525;49.398;7.614;2022-11-20T16:15:23;6.80;99.90
50570;DHT22;36525;49.398;7.614;2022-11-20T16:18:10;6.80;99.90
50570;DHT22;36525;49.398;7.614;2022-11-20T16:20:38;6.80;99.90
50570;DHT22;36525;49.398;7.614;2022-11-20T16:23:06;6.80;99.90
50570;DHT22;36525;49.398;7.614;2022-11-20T16:25:33;6.70;99.90
50570;DHT22;36525;49.398;7.614;2022-11-20T16:28:00;6.60;99.90
50570;DHT22;36525;49.398;7.614;2022-11-20T16:30:27;6.50;99.90
50570;DHT22;36525;49.398;7.614;2022-11-20T16:32:54;6.40;99.90
50570;DHT22;36525;49.398;7.614;2022-11-20T16:35:21;6.40;99.90
50570;DHT22;36525;49.398;7.614;2022-11-20T16:37:48;6.30;99.90
50570;DHT22;36525;49.398;7.614;2022-11-20T16:40:15;6.20;99.90
50570;DHT22;36525;49.398;7.614;2022-11-20T16:42:42;6.30;99.90
50570;DHT22;36525;49.398;7.614;2022-11-20T16:45:09;6.30;99.90
50570;DHT22;36525;49.398;7.614;2022-11-20T16:47:36;6.20;99.90
50570;DHT22;36525;49.398;7.614;2022-11-20T16:50:04;6.20;99.90
50570;DHT22;36525;49.398;7.614;2022-11-20T16:52:31;6.10;99.90
50570;DHT22;36525;49.398;7.614;2022-11-20T16:54:58;6.10;99.90
50570;DHT22;36525;49.398;7.614;2022-11-20T16:57:29;6.10;99.90
50570;DHT22;36525;49.398;7.614;2022-11-20T16:59:59;6.10;99.90
50570;DHT22;36525;49.398;7.614;2022-11-20T17:02:28;6.10;99.90
50570;DHT22;36525;49.398;7.614;2022-11-20T17:04:56;6.00;99.90
50570;DHT22;36525;49.398;7.614;2022-11-20T17:07:23;6.00;99.90
50570;DHT22;36525;49.398;7.614;2022-11-20T17:09:50;6.00;99.90
50570;DHT22;36525;49.398;7.614;2022-11-20T17:12:17;5.90;99.90
50570;DHT22;36525;49.398;7.614;2022-11-20T17:14:44;5.90;99.90
50570;DHT22;36525;49.398;7.614;2022-11-20T17:17:11;5.90;99.90
50570;DHT22;36525;49.398;7.614;2022-11-20T17:19:38;5.80;99.90
50570;DHT22;36525;49.398;7.614;2022-11-20T17:22:04;5.80;99.90
50570;DHT22;36525;49.398;7.614;2022-11-20T17:24:31;5.80;99.90
50570;DHT22;36525;49.398;7.614;2022-11-20T17:26:59;5.80;99.90
50570;DHT22;36525;49.398;7.614;2022-11-20T17:29:26;5.70;99.90
50570;DHT22;36525;49.398;7.614;2022-11-20T17:31:52;5.70;99.90
50570;DHT22;36525;49.398;7.614;2022-11-20T17:34:20;5.70;99.90
50570;DHT22;36525;49.398;7.614;2022-11-20T17:36:47;5.70;99.90
50570;DHT22;36525;49.398;7.614;2022-11-20T17:39:15;5.70;99.90
50570;DHT22;36525;49.398;7.614;2022-11-20T17:41:43;5.60;99.90
50570;DHT22;36525;49.398;7.614;2022-11-20T17:44:11;5.50;99.90
50570;DHT22;36525;49.398;7.614;2022-11-20T17:46:38;5.50;99.90